Time;durP1;ratioP1;P1;durP2;ratioP2;P2;SDS_P1;SDS_P2;PMS_P1;PMS_P2;Temp;Humidity;BMP_temperature;BMP_pressure;BME280_temperature;BME280_humidity;BME280_pressure;Samples;Min_cycle;Max_cycle;Signal;HPM_P1;HPM_P2
2022/10/23 00:02:24;;;;;;;8.00;3.00;;;17.60;69.30;;;;;;5028800;28;20629;-51
2022/10/23 00:04:50;;;;;;;4.63;3.10;;;17.60;69.00;;;;;;5031420;28;20204;-51
2022/10/23 00:07:16;;;;;;;5.37;3.00;;;17.70;68.70;;;;;;5030152;28;20268;-49
2022/10/23 00:09:42;;;;;;;4.13;3.13;;;17.60;69.00;;;;;;5031047;28;20420;-49
2022/10/23 00:12:08;;;;;;;4.93;3.03;;;17.50;69.30;;;;;;5030028;28;20434;-48
2022/10/23 00:14:33;;;;;;;3.53;3.13;;;17.40;69.50;;;;;;5034070;28;20189;-49
2022/10/23 00:16:59;;;;;;;5.87;3.20;;;17.30;69.70;;;;;;5034873;28;20554;-48
2022/10/23 00:19:24;;;;;;;7.07;3.20;;;17.20;70.20;;;;;;5031082;28;20196;-51
2022/10/23 00:21:50;;;;;;;5.67;3.30;;;17.20;70.50;;;;;;5030258;28;20197;-48
2022/10/23 00:24:16;;;;;;;3.10;2.80;;;17.00;70.60;;;;;;5013104;28;20204;-52
2022/10/23 00:26:42;;;;;;;4.53;3.10;;;17.10;70.80;;;;;;5030093;28;20196;-49
2022/10/23 00:29:09;;;;;;;4.80;3.57;;;17.00;70.70;;;;;;5029381;28;20295;-49
2022/10/23 00:31:34;;;;;;;8.50;3.23;;;16.90;71.40;;;;;;5034031;28;20440;-53
2022/10/23 00:34:00;;;;;;;4.03;3.30;;;16.90;71.20;;;;;;5034647;28;20462;-53
2022/10/23 00:36:26;;;;;;;5.50;3.30;;;17.00;71.10;;;;;;5034703;28;20239;-50
2022/10/23 00:38:51;;;;;;;10.20;4.57;;;17.10;70.80;;;;;;5043108;28;20247;-49
2022/10/23 00:41:21;;;;;;;10.13;4.57;;;17.30;70.10;;;;;;5054225;28;20623;-52
2022/10/23 00:43:56;;;;;;;4.50;4.03;;;17.40;69.10;;;;;;5053793;28;20198;-51
2022/10/23 00:46:22;;;;;;;7.10;3.70;;;17.40;68.20;;;;;;5054724;28;20513;-52
2022/10/23 00:48:47;;;;;;;7.50;4.00;;;17.30;68.00;;;;;;5054091;28;20577;-49
2022/10/23 00:51:13;;;;;;;10.50;4.17;;;17.20;68.20;;;;;;5054596;28;20215;-51
2022/10/23 00:53:38;;;;;;;13.63;4.50;;;17.20;68.70;;;;;;5053336;28;20558;-51
2022/10/23 00:56:04;;;;;;;4.40;4.00;;;17.30;68.30;;;;;;5052767;28;20553;-51
2022/10/23 00:58:30;;;;;;;6.73;3.60;;;17.30;67.80;;;;;;5053685;28;20224;-49
2022/10/23 01:00:56;;;;;;;4.03;3.70;;;17.30;67.20;;;;;;5054229;28;20200;-52
2022/10/23 01:03:27;;;;;;;5.93;4.37;;;17.30;66.50;;;;;;5053540;28;20193;-48
2022/10/23 01:06:01;;;;;;;5.93;3.67;;;17.40;66.70;;;;;;5054195;28;20446;-49
2022/10/23 01:08:45;;;;;;;7.07;3.80;;;17.40;66.30;;;;;;5053655;28;20937;-49
2022/10/23 01:11:19;;;;;;;5.90;3.57;;;17.40;66.00;;;;;;5054194;28;20443;-52
2022/10/23 01:13:50;;;;;;;5.07;3.47;;;17.40;66.00;;;;;;5053190;28;20951;-51
2022/10/23 01:16:30;;;;;;;5.97;3.50;;;17.30;65.50;;;;;;5043742;28;20999;-51
2022/10/23 01:19:06;;;;;;;11.23;3.70;;;17.00;67.00;;;;;;5033598;28;21178;-51
2022/10/23 01:22:03;;;;;;;7.83;4.47;;;16.70;68.20;;;;;;5033081;28;20424;-52
2022/10/23 01:24:53;;;;;;;4.73;3.30;;;16.80;68.70;;;;;;5015919;28;20777;-49
2022/10/23 01:27:27;;;;;;;4.90;3.30;;;16.90;68.00;;;;;;5053235;28;20455;-48
2022/10/23 01:30:24;;;;;;;5.23;3.70;;;16.90;67.60;;;;;;5053559;28;20788;-50
2022/10/23 01:32:55;;;;;;;9.00;3.17;;;17.00;67.10;;;;;;5048621;28;20443;-49
2022/10/23 01:35:31;;;;;;;12.30;4.30;;;16.90;66.70;;;;;;5053873;28;20419;-50
2022/10/23 01:38:10;;;;;;;5.90;3.80;;;17.00;66.40;;;;;;5052683;28;20494;-48
2022/10/23 01:40:42;;;;;;;9.60;3.47;;;16.90;65.80;;;;;;5025929;28;20793;-51
2022/10/23 01:43:15;;;;;;;6.10;3.47;;;16.80;66.70;;;;;;5032042;28;20466;-48
2022/10/23 01:45:44;;;;;;;3.57;3.23;;;16.80;66.90;;;;;;5033543;28;20416;-48
2022/10/23 01:48:15;;;;;;;6.33;3.83;;;16.80;66.80;;;;;;5032813;28;20428;-50
2022/10/23 01:50:42;;;;;;;6.03;3.63;;;16.60;67.20;;;;;;5031681;28;20559;-48
2022/10/23 01:53:08;;;;;;;4.17;3.40;;;16.30;68.10;;;;;;5032407;28;20420;-49
2022/10/23 01:55:37;;;;;;;7.20;3.40;;;16.10;69.30;;;;;;5033495;28;20434;-49
2022/10/23 01:58:06;;;;;;;5.57;3.37;;;16.00;70.20;;;;;;5032703;28;20928;-49
2022/10/23 02:00:32;;;;;;;5.20;4.43;;;16.20;69.90;;;;;;5033093;28;20431;-48
2022/10/23 02:03:02;;;;;;;5.93;3.10;;;16.30;69.20;;;;;;5032053;28;20942;-49
2022/10/23 02:05:28;;;;;;;5.93;3.40;;;16.40;68.70;;;;;;5033046;28;20528;-51
2022/10/23 02:07:54;;;;;;;8.37;3.20;;;16.50;68.40;;;;;;5038937;28;20481;-52
2022/10/23 02:10:22;;;;;;;6.00;3.40;;;16.60;67.70;;;;;;5053139;28;20427;-47
2022/10/23 02:13:06;;;;;;;6.67;3.40;;;16.60;67.50;;;;;;5052005;28;20469;-48
2022/10/23 02:15:39;;;;;;;4.13;3.27;;;16.70;67.40;;;;;;5048829;28;20945;-49
2022/10/23 02:18:22;;;;;;;6.83;3.40;;;16.70;67.10;;;;;;5032345;28;20856;-51
2022/10/23 02:20:57;;;;;;;4.50;2.60;;;16.60;67.40;;;;;;5032897;28;20986;-47
2022/10/23 02:24:02;;;;;;;3.93;2.87;;;16.60;67.50;;;;;;5032212;28;20911;-49
2022/10/23 02:26:50;;;;;;;4.67;3.70;;;16.60;67.30;;;;;;5021819;28;20443;-50
2022/10/23 02:29:29;;;;;;;5.40;3.73;;;16.40;67.70;;;;;;5041582;28;20419;-52
2022/10/23 02:31:54;;;;;;;7.47;3.30;;;16.20;68.40;;;;;;5051724;28;20447;-51
2022/10/23 02:34:20;;;;;;;4.20;3.50;;;16.30;68.40;;;;;;5052568;28;20472;-49
2022/10/23 02:36:46;;;;;;;4.60;3.70;;;16.10;68.60;;;;;;5051613;28;20248;-49
2022/10/23 02:39:11;;;;;;;8.93;4.00;;;16.00;69.50;;;;;;5052241;28;20311;-48
2022/10/23 02:41:53;;;;;;;5.40;3.20;;;16.00;69.30;;;;;;5033833;28;20284;-51
2022/10/23 02:44:30;;;;;;;5.50;3.60;;;16.10;69.30;;;;;;5031161;28;20271;-48
2022/10/23 02:47:13;;;;;;;3.63;3.33;;;16.20;68.90;;;;;;5039570;28;20423;-49
2022/10/23 02:49:42;;;;;;;10.83;4.10;;;16.30;68.50;;;;;;5052284;28;20427;-48
2022/10/23 02:52:26;;;;;;;10.13;3.30;;;16.40;68.40;;;;;;5050694;28;20439;-48
2022/10/23 02:54:54;;;;;;;4.67;3.13;;;16.40;67.30;;;;;;5052516;28;20438;-48
2022/10/23 02:57:35;;;;;;;6.17;3.57;;;16.30;67.70;;;;;;5051430;28;20470;-48
2022/10/23 03:00:10;;;;;;;3.93;3.27;;;16.30;67.90;;;;;;5051844;28;20465;-48
2022/10/23 03:02:56;;;;;;;9.30;3.93;;;16.20;67.70;;;;;;5050948;28;20462;-47
2022/10/23 03:05:27;;;;;;;3.70;3.40;;;16.10;68.10;;;;;;5052249;28;20517;-51
2022/10/23 03:07:53;;;;;;;8.53;3.17;;;15.90;69.60;;;;;;5051637;28;20427;-47
2022/10/23 03:10:18;;;;;;;4.53;3.30;;;16.00;69.60;;;;;;5050014;28;20537;-48
2022/10/23 03:12:45;;;;;;;5.50;3.07;;;16.10;69.20;;;;;;5050899;28;20419;-48
2022/10/23 03:15:11;;;;;;;7.17;2.87;;;16.10;68.70;;;;;;5051293;28;20553;-52
2022/10/23 03:17:37;;;;;;;5.77;3.70;;;16.20;68.80;;;;;;5031232;28;20487;-48
2022/10/23 03:20:04;;;;;;;3.97;3.30;;;16.30;68.40;;;;;;5031385;28;20204;-50
2022/10/23 03:22:30;;;;;;;5.63;2.87;;;16.30;67.90;;;;;;5030633;28;20198;-49
2022/10/23 03:24:55;;;;;;;9.10;3.00;;;16.40;68.00;;;;;;5031673;28;20532;-49
2022/10/23 03:27:21;;;;;;;5.43;2.87;;;16.40;67.60;;;;;;5030889;28;20197;-48
2022/10/23 03:29:47;;;;;;;5.57;2.70;;;16.50;67.20;;;;;;5031785;28;20193;-48
2022/10/23 03:32:12;;;;;;;6.53;3.57;;;16.50;66.80;;;;;;5030781;28;20235;-48
2022/10/23 03:34:38;;;;;;;3.73;3.10;;;16.50;66.50;;;;;;5031538;28;20216;-49
2022/10/23 03:37:03;;;;;;;5.30;3.50;;;16.40;66.00;;;;;;5028789;28;20233;-49
2022/10/23 03:39:29;;;;;;;3.93;3.57;;;16.20;66.60;;;;;;5045192;28;20200;-47
2022/10/23 03:41:54;;;;;;;6.27;3.67;;;16.20;67.10;;;;;;5050368;28;20219;-52
2022/10/23 03:44:20;;;;;;;4.20;3.07;;;16.20;67.50;;;;;;5051389;28;20196;-49
2022/10/23 03:46:46;;;;;;;4.73;3.00;;;16.10;68.20;;;;;;5050844;28;20204;-49
2022/10/23 03:49:11;;;;;;;4.10;3.40;;;15.80;69.10;;;;;;5051023;28;20616;-48
2022/10/23 03:51:40;;;;;;;4.80;2.97;;;15.60;70.40;;;;;;5050244;28;20612;-48
2022/10/23 03:54:06;;;;;;;3.50;3.20;;;15.50;71.40;;;;;;5051038;28;20192;-48
2022/10/23 03:56:32;;;;;;;6.20;3.70;;;15.60;71.50;;;;;;5050679;28;20435;-52
2022/10/23 03:58:58;;;;;;;6.90;2.93;;;15.70;71.00;;;;;;5050741;28;20846;-48
2022/10/23 04:01:24;;;;;;;7.10;2.70;;;15.70;70.70;;;;;;5051078;28;21085;-48
2022/10/23 04:03:49;;;;;;;3.03;2.60;;;15.60;71.10;;;;;;5048134;28;20201;-48
2022/10/23 04:06:15;;;;;;;3.70;2.60;;;15.60;71.30;;;;;;5050917;28;20227;-47
2022/10/23 04:08:43;;;;;;;3.57;2.93;;;15.50;71.80;;;;;;5050144;28;20196;-48
2022/10/23 04:11:08;;;;;;;4.10;3.03;;;15.60;71.30;;;;;;5050538;28;20632;-48
2022/10/23 04:13:34;;;;;;;4.70;2.97;;;15.70;70.90;;;;;;5050433;28;20412;-48
2022/10/23 04:15:59;;;;;;;4.10;3.10;;;15.70;70.70;;;;;;5043686;28;20197;-48
2022/10/23 04:18:25;;;;;;;3.73;2.87;;;15.60;71.40;;;;;;5030092;28;20224;-49
2022/10/23 04:20:51;;;;;;;3.10;2.80;;;15.70;72.30;;;;;;5031161;28;20641;-49
2022/10/23 04:23:17;;;;;;;4.37;2.90;;;15.90;71.10;;;;;;5030086;28;20185;-48
2022/10/23 04:25:42;;;;;;;3.00;2.80;;;16.00;70.50;;;;;;5030924;28;20768;-52
2022/10/23 04:28:08;;;;;;;6.20;2.80;;;16.10;69.10;;;;;;5030474;28;20224;-51
2022/10/23 04:30:34;;;;;;;10.03;2.73;;;16.00;69.30;;;;;;5035858;28;20571;-48
2022/10/23 04:32:59;;;;;;;4.40;2.47;;;16.00;69.50;;;;;;5049837;28;20192;-50
2022/10/23 04:35:25;;;;;;;3.67;3.37;;;16.10;69.00;;;;;;5050977;28;20951;-50
2022/10/23 04:37:50;;;;;;;4.20;2.60;;;16.00;68.90;;;;;;5050205;28;20253;-48
2022/10/23 04:40:16;;;;;;;4.33;2.30;;;16.10;68.80;;;;;;5044612;28;20198;-48
2022/10/23 04:42:42;;;;;;;4.00;2.40;;;16.10;68.50;;;;;;5030145;28;20633;-49
2022/10/23 04:45:08;;;;;;;2.60;2.40;;;16.20;68.40;;;;;;5030964;28;20194;-48
2022/10/23 04:47:33;;;;;;;5.50;2.70;;;16.20;68.20;;;;;;5030093;28;20341;-51
2022/10/23 04:49:59;;;;;;;11.83;2.97;;;15.90;68.60;;;;;;5030406;28;20464;-48
2022/10/23 04:52:24;;;;;;;3.30;2.53;;;15.80;69.60;;;;;;5029990;28;20645;-51
2022/10/23 04:54:50;;;;;;;5.67;2.80;;;15.70;70.10;;;;;;5030819;28;20193;-51
2022/10/23 04:57:16;;;;;;;6.57;2.90;;;15.70;70.40;;;;;;5028459;28;20617;-48
2022/10/23 04:59:41;;;;;;;6.60;3.83;;;15.80;70.20;;;;;;5030591;28;20189;-49
2022/10/23 05:02:07;;;;;;;8.30;3.77;;;15.90;70.00;;;;;;5029699;28;20239;-48
2022/10/23 05:04:33;;;;;;;2.53;2.33;;;15.90;69.50;;;;;;5030575;28;20197;-50
2022/10/23 05:06:58;;;;;;;2.40;2.20;;;16.00;69.20;;;;;;5030020;28;20649;-48
2022/10/23 05:09:24;;;;;;;6.13;2.57;;;16.00;68.80;;;;;;5030379;28;20197;-51
2022/10/23 05:11:49;;;;;;;3.40;3.10;;;16.00;69.10;;;;;;5029676;28;20200;-49
2022/10/23 05:14:15;;;;;;;5.87;2.27;;;15.90;69.30;;;;;;5030805;28;20255;-50
2022/10/23 05:16:52;;;;;;;4.67;2.60;;;15.70;69.90;;;;;;5041344;28;20641;-51
2022/10/23 05:19:25;;;;;;;2.83;2.63;;;15.80;70.10;;;;;;5034081;28;20315;-49
2022/10/23 05:21:54;;;;;;;4.23;2.33;;;15.90;70.00;;;;;;5032995;28;20428;-48
2022/10/23 05:24:21;;;;;;;3.33;2.50;;;15.90;69.80;;;;;;5032675;28;20432;-50
2022/10/23 05:26:46;;;;;;;3.57;2.57;;;15.80;70.00;;;;;;5033336;28;20455;-49
2022/10/23 05:29:12;;;;;;;3.07;2.57;;;15.80;70.00;;;;;;5033936;28;20420;-48
2022/10/23 05:31:38;;;;;;;6.70;2.70;;;15.90;70.20;;;;;;5032743;28;20201;-48
2022/10/23 05:34:04;;;;;;;6.17;2.97;;;15.90;69.90;;;;;;5033979;28;20225;-49
2022/10/23 05:36:30;;;;;;;4.37;2.60;;;16.00;69.60;;;;;;5033480;28;20467;-53
2022/10/23 05:38:57;;;;;;;3.77;2.63;;;15.90;69.70;;;;;;5042568;28;20486;-52
2022/10/23 05:41:22;;;;;;;3.70;2.47;;;16.00;69.80;;;;;;5037948;28;20227;-53
2022/10/23 05:43:48;;;;;;;5.40;2.63;;;16.00;69.30;;;;;;5032731;28;20425;-51
2022/10/23 05:46:13;;;;;;;7.10;2.77;;;16.00;68.80;;;;;;5033535;28;20262;-52
2022/10/23 05:48:39;;;;;;;8.30;3.63;;;16.00;69.30;;;;;;5032668;28;20288;-49
2022/10/23 05:51:10;;;;;;;6.47;2.80;;;16.00;69.00;;;;;;5031350;28;20201;-52
2022/10/23 05:53:36;;;;;;;5.00;3.70;;;16.00;69.10;;;;;;5032733;28;20201;-49
2022/10/23 05:56:08;;;;;;;3.40;2.87;;;15.90;69.60;;;;;;5033252;28;20511;-49
2022/10/23 05:58:34;;;;;;;4.50;2.60;;;15.90;70.00;;;;;;5032861;28;20221;-51
2022/10/23 06:01:04;;;;;;;2.40;2.30;;;15.90;69.30;;;;;;5032860;28;20428;-50
2022/10/23 06:03:30;;;;;;;2.73;2.53;;;15.70;69.90;;;;;;5032516;28;20193;-52
2022/10/23 06:05:55;;;;;;;7.33;2.67;;;15.60;71.30;;;;;;5033266;28;20791;-52
2022/10/23 06:08:23;;;;;;;4.13;2.83;;;15.70;71.00;;;;;;5032695;28;20198;-51
2022/10/23 06:10:49;;;;;;;7.83;2.77;;;15.80;70.50;;;;;;5032914;28;20204;-52
2022/10/23 06:13:14;;;;;;;5.30;2.40;;;15.90;70.20;;;;;;5032035;28;21155;-52
2022/10/23 06:15:40;;;;;;;3.70;2.23;;;16.00;69.90;;;;;;5041049;28;20185;-53
2022/10/23 06:18:05;;;;;;;6.90;2.33;;;16.00;69.50;;;;;;5031257;28;20232;-50
2022/10/23 06:20:35;;;;;;;6.07;2.63;;;15.90;69.80;;;;;;5032665;28;20492;-52
2022/10/23 06:23:00;;;;;;;3.60;2.70;;;16.00;70.20;;;;;;5031886;28;20204;-52
2022/10/23 06:25:26;;;;;;;4.90;2.50;;;16.00;69.70;;;;;;5032672;28;20427;-51
2022/10/23 06:27:51;;;;;;;5.20;2.20;;;16.00;69.70;;;;;;5031627;28;20553;-52
2022/10/23 06:30:17;;;;;;;3.20;2.43;;;16.20;69.60;;;;;;5032787;28;20192;-48
2022/10/23 06:32:42;;;;;;;6.87;2.40;;;16.20;69.10;;;;;;5031484;28;20260;-50
2022/10/23 06:35:08;;;;;;;11.13;2.70;;;16.30;69.30;;;;;;5032669;28;20197;-49
2022/10/23 06:37:34;;;;;;;14.13;2.90;;;16.30;69.60;;;;;;5031985;28;20241;-51
2022/10/23 06:39:59;;;;;;;2.33;2.13;;;16.20;69.80;;;;;;5046464;28;20185;-48
2022/10/23 06:42:25;;;;;;;10.07;3.10;;;16.20;70.20;;;;;;5030844;28;20243;-50
2022/10/23 06:44:50;;;;;;;6.90;2.70;;;16.20;70.40;;;;;;5031569;28;20200;-48
2022/10/23 06:47:16;;;;;;;4.33;2.73;;;16.30;70.10;;;;;;5031994;28;20250;-49
2022/10/23 06:49:41;;;;;;;8.60;3.17;;;16.40;69.30;;;;;;5032175;28;20237;-50
2022/10/23 06:52:07;;;;;;;3.20;2.40;;;16.40;69.10;;;;;;5031104;28;20663;-51
2022/10/23 06:54:33;;;;;;;6.43;2.43;;;16.40;69.20;;;;;;5032241;28;20193;-48
2022/10/23 06:56:58;;;;;;;2.50;2.30;;;16.30;69.20;;;;;;5031771;28;20323;-47
2022/10/23 06:59:24;;;;;;;3.60;2.80;;;16.40;69.60;;;;;;5032369;28;20668;-48
2022/10/23 07:01:50;;;;;;;3.23;2.73;;;16.50;69.20;;;;;;5031074;28;20205;-49
2022/10/23 07:04:15;;;;;;;5.57;2.50;;;16.60;69.00;;;;;;5032019;28;20679;-49
2022/10/23 07:06:41;;;;;;;4.83;2.53;;;16.60;68.50;;;;;;5031486;28;20251;-52
2022/10/23 07:09:07;;;;;;;4.60;2.67;;;16.60;69.10;;;;;;5031482;28;20201;-50
2022/10/23 07:11:33;;;;;;;2.97;2.77;;;16.70;69.30;;;;;;5029765;28;20413;-50
2022/10/23 07:13:59;;;;;;;5.17;2.17;;;16.70;69.10;;;;;;5031859;28;20432;-50
2022/10/23 07:16:24;;;;;;;8.90;3.87;;;16.70;69.40;;;;;;5040963;28;20201;-52
2022/10/23 07:18:58;;;;;;;5.10;2.80;;;16.80;69.00;;;;;;5031011;28;20236;-48
2022/10/23 07:21:33;;;;;;;4.30;3.63;;;16.80;69.60;;;;;;5031305;28;20207;-52
2022/10/23 07:23:59;;;;;;;5.13;3.73;;;16.90;69.40;;;;;;5031654;28;20477;-51
2022/10/23 07:26:25;;;;;;;3.40;3.10;;;16.90;68.60;;;;;;5031796;28;20506;-53
2022/10/23 07:28:53;;;;;;;3.40;3.10;;;16.90;68.80;;;;;;5031189;28;20571;-50
2022/10/23 07:31:21;;;;;;;3.10;2.90;;;16.90;68.90;;;;;;5031493;28;20435;-50
2022/10/23 07:33:47;;;;;;;2.97;2.77;;;16.90;68.70;;;;;;5030632;28;20428;-52
2022/10/23 07:36:12;;;;;;;4.80;3.17;;;16.80;68.90;;;;;;5029327;28;20424;-52
2022/10/23 07:38:38;;;;;;;6.23;3.40;;;16.60;70.40;;;;;;5037262;28;20228;-49
2022/10/23 07:41:04;;;;;;;6.43;3.17;;;16.60;70.50;;;;;;5020849;28;20251;-48
2022/10/23 07:43:30;;;;;;;7.43;2.87;;;16.60;71.20;;;;;;5030890;28;20197;-52
2022/10/23 07:45:55;;;;;;;8.93;3.70;;;16.70;71.30;;;;;;5031107;28;20565;-51
2022/10/23 07:48:22;;;;;;;7.10;3.90;;;16.70;70.90;;;;;;5030621;28;20494;-52
2022/10/23 07:50:48;;;;;;;5.30;3.77;;;16.90;71.10;;;;;;5031012;28;20631;-52
2022/10/23 07:53:23;;;;;;;4.27;3.83;;;17.10;70.50;;;;;;5030347;28;20424;-50
2022/10/23 07:56:00;;;;;;;6.03;3.30;;;17.30;70.20;;;;;;5031345;28;20903;-48
2022/10/23 07:58:27;;;;;;;6.90;3.60;;;17.40;69.30;;;;;;5030493;28;20502;-51
2022/10/23 08:00:58;;;;;;;5.90;3.63;;;17.40;69.60;;;;;;5030996;28;20455;-50
2022/10/23 08:03:33;;;;;;;8.40;3.60;;;17.60;69.50;;;;;;5029001;28;20427;-50
2022/10/23 08:05:59;;;;;;;8.40;3.63;;;17.60;69.00;;;;;;5031067;28;20415;-49
2022/10/23 08:08:25;;;;;;;5.50;3.43;;;17.80;69.10;;;;;;5030664;28;20503;-53
2022/10/23 08:10:53;;;;;;;4.30;2.37;;;17.90;69.70;;;;;;5030864;28;20515;-49
2022/10/23 08:13:20;;;;;;;4.23;2.10;;;17.90;70.10;;;;;;5030205;28;20428;-53
2022/10/23 08:15:47;;;;;;;4.17;2.83;;;17.90;69.90;;;;;;5040047;28;20960;-48
2022/10/23 08:18:13;;;;;;;3.80;2.80;;;18.00;69.60;;;;;;5030434;28;20566;-52
2022/10/23 08:20:41;;;;;;;2.70;2.50;;;18.20;69.40;;;;;;5030672;28;20764;-50
2022/10/23 08:23:07;;;;;;;3.33;2.80;;;18.40;69.30;;;;;;5030321;28;20519;-52
2022/10/23 08:25:33;;;;;;;4.30;3.60;;;18.50;68.80;;;;;;5030677;28;20536;-49
2022/10/23 08:27:59;;;;;;;3.13;2.77;;;18.70;68.60;;;;;;5030393;28;20196;-52
2022/10/23 08:30:26;;;;;;;4.80;3.30;;;18.80;67.60;;;;;;5029221;28;20439;-53
2022/10/23 08:32:52;;;;;;;5.83;3.23;;;18.90;66.80;;;;;;5029904;28;20452;-52
2022/10/23 08:35:17;;;;;;;6.20;3.13;;;19.10;67.30;;;;;;5030892;28;20455;-52
2022/10/23 08:37:43;;;;;;;7.07;3.50;;;19.10;66.60;;;;;;5030056;28;20240;-51
2022/10/23 08:40:18;;;;;;;4.10;2.97;;;19.30;67.00;;;;;;5044766;28;20190;-52
2022/10/23 08:43:12;;;;;;;3.63;2.97;;;19.30;67.20;;;;;;5029785;28;20204;-48
2022/10/23 08:45:48;;;;;;;5.13;4.30;;;19.50;66.50;;;;;;5029732;28;20439;-52
2022/10/23 08:48:27;;;;;;;4.37;3.97;;;19.70;65.60;;;;;;5049864;28;21239;-51
2022/10/23 08:51:04;;;;;;;5.73;3.60;;;19.80;65.10;;;;;;5051808;28;20467;-52
2022/10/23 08:53:40;;;;;;;5.30;3.13;;;19.90;64.50;;;;;;5053914;28;20419;-52
2022/10/23 08:56:25;;;;;;;6.50;3.83;;;19.90;63.80;;;;;;5053188;28;20508;-52
2022/10/23 08:59:33;;;;;;;5.27;3.43;;;20.00;63.60;;;;;;5053917;28;20929;-51
2022/10/23 09:02:24;;;;;;;5.23;2.40;;;20.10;62.90;;;;;;5042240;28;20445;-52
2022/10/23 09:04:52;;;;;;;4.53;2.53;;;20.20;62.90;;;;;;5042946;28;20443;-52
2022/10/23 09:07:42;;;;;;;2.33;2.10;;;20.20;62.30;;;;;;5053372;28;20430;-48
2022/10/23 09:10:41;;;;;;;3.70;2.13;;;20.20;61.50;;;;;;5054194;28;20451;-51
2022/10/23 09:13:33;;;;;;;4.20;2.00;;;20.00;62.30;;;;;;5053527;28;20435;-53
2022/10/23 09:16:34;;;;;;;3.23;2.17;;;20.00;63.20;;;;;;5008519;28;20486;-52
2022/10/23 09:18:59;;;;;;;4.73;2.30;;;20.20;62.70;;;;;;5033983;28;20480;-52
2022/10/23 09:21:27;;;;;;;1.90;1.70;;;20.50;61.70;;;;;;5033729;28;20443;-51
2022/10/23 09:23:52;;;;;;;4.13;2.10;;;20.70;60.40;;;;;;5032172;28;20637;-53
2022/10/23 09:26:18;;;;;;;2.00;1.90;;;21.10;60.10;;;;;;5034189;28;20435;-52
2022/10/23 09:29:17;;;;;;;2.37;2.00;;;21.40;59.10;;;;;;5033128;28;20672;-52
2022/10/23 09:32:04;;;;;;;2.13;1.40;;;21.70;58.80;;;;;;5032829;28;20197;-52
2022/10/23 09:34:32;;;;;;;1.67;1.50;;;21.70;56.00;;;;;;5033743;28;20444;-52
2022/10/23 09:37:02;;;;;;;1.30;1.20;;;21.60;56.10;;;;;;5032988;28;20986;-51
2022/10/23 09:39:33;;;;;;;1.70;1.60;;;21.60;55.70;;;;;;5046620;28;20479;-49
2022/10/23 09:42:01;;;;;;;6.77;2.00;;;22.00;56.50;;;;;;5045674;28;20447;-52
2022/10/23 09:44:32;;;;;;;3.53;1.47;;;22.30;55.80;;;;;;5039559;28;20506;-53
2022/10/23 09:47:12;;;;;;;3.20;1.50;;;22.60;55.00;;;;;;5045310;28;20790;-49
2022/10/23 09:49:45;;;;;;;1.37;1.13;;;22.90;53.60;;;;;;5031779;28;20448;-51
2022/10/23 09:52:10;;;;;;;3.40;2.00;;;23.00;53.60;;;;;;5032230;28;21090;-52
2022/10/23 09:54:50;;;;;;;4.30;1.47;;;23.20;52.40;;;;;;5033557;28;20554;-53
2022/10/23 09:57:27;;;;;;;3.83;1.60;;;23.50;52.10;;;;;;5032740;28;20200;-52
2022/10/23 09:59:56;;;;;;;3.13;1.30;;;23.70;51.20;;;;;;5040308;28;20927;-48
2022/10/23 10:02:34;;;;;;;4.07;1.10;;;23.80;50.50;;;;;;5051121;28;20427;-51
2022/10/23 10:05:34;;;;;;;3.30;1.40;;;24.00;49.90;;;;;;5053221;28;20466;-49
2022/10/23 10:08:09;;;;;;;1.90;1.20;;;24.10;49.60;;;;;;5024017;28;20443;-50
2022/10/23 10:10:44;;;;;;;1.30;1.00;;;24.20;50.00;;;;;;5052330;28;20431;-51
2022/10/23 10:13:35;;;;;;;2.57;1.17;;;24.20;49.40;;;;;;5052472;28;20423;-49
2022/10/23 10:16:00;;;;;;;5.17;1.13;;;24.60;50.00;;;;;;5047007;28;20478;-52
2022/10/23 10:18:33;;;;;;;1.30;1.20;;;24.70;50.20;;;;;;5012885;28;20998;-49
2022/10/23 10:21:19;;;;;;;2.30;0.83;;;25.00;49.00;;;;;;5039289;28;20275;-49
2022/10/23 10:24:06;;;;;;;2.67;1.20;;;24.90;47.90;;;;;;5052247;28;20431;-52
2022/10/23 10:26:46;;;;;;;1.30;1.20;;;25.00;49.00;;;;;;5052053;28;20419;-50
2022/10/23 10:29:24;;;;;;;1.20;1.10;;;25.00;47.80;;;;;;5052525;28;20423;-53
2022/10/23 10:32:09;;;;;;;2.80;1.30;;;25.10;47.60;;;;;;5051756;28;20536;-53
2022/10/23 10:34:59;;;;;;;1.40;1.30;;;25.20;47.50;;;;;;5052577;28;20943;-50
2022/10/23 10:37:39;;;;;;;1.23;1.00;;;25.20;47.40;;;;;;5051877;28;20497;-50
2022/10/23 10:40:20;;;;;;;1.30;1.20;;;25.30;48.20;;;;;;5047694;28;20832;-52
2022/10/23 10:43:04;;;;;;;1.70;0.93;;;25.30;47.50;;;;;;5031445;28;20423;-51
2022/10/23 10:45:46;;;;;;;3.23;1.27;;;25.50;48.10;;;;;;5041517;28;20427;-51
2022/10/23 10:48:50;;;;;;;1.33;1.03;;;25.70;47.40;;;;;;5051714;28;20434;-51
2022/10/23 10:51:29;;;;;;;1.10;0.90;;;25.80;46.80;;;;;;5052350;28;20974;-53
2022/10/23 10:54:09;;;;;;;1.10;0.90;;;25.80;46.40;;;;;;5052386;28;20446;-54
2022/10/23 10:56:39;;;;;;;1.80;1.20;;;25.90;46.40;;;;;;5051868;28;20427;-52
2022/10/23 10:59:14;;;;;;;4.77;1.30;;;26.00;46.60;;;;;;5052392;28;20552;-52
2022/10/23 11:01:46;;;;;;;1.47;1.10;;;26.10;46.70;;;;;;5051143;28;20462;-53
2022/10/23 11:04:20;;;;;;;1.10;1.10;;;26.20;46.90;;;;;;5052085;28;20442;-53
2022/10/23 11:06:50;;;;;;;2.13;1.47;;;26.20;46.40;;;;;;5051552;28;20419;-54
2022/10/23 11:09:23;;;;;;;2.53;1.57;;;26.20;46.50;;;;;;5052332;28;20419;-50
2022/10/23 11:11:48;;;;;;;1.03;1.00;;;26.10;45.80;;;;;;5049594;28;20959;-53
2022/10/23 11:14:20;;;;;;;1.23;1.13;;;26.10;46.10;;;;;;5051846;28;20435;-53
2022/10/23 11:16:49;;;;;;;2.90;1.00;;;26.20;46.60;;;;;;5032048;28;20193;-53
2022/10/23 11:19:31;;;;;;;2.10;1.63;;;26.20;45.90;;;;;;5032015;28;20491;-53
2022/10/23 11:21:59;;;;;;;1.23;1.10;;;26.30;46.20;;;;;;5031087;28;20439;-52
2022/10/23 11:24:41;;;;;;;3.43;1.20;;;26.30;45.80;;;;;;5032006;28;20463;-53
2022/10/23 11:27:31;;;;;;;2.43;1.40;;;26.50;45.80;;;;;;5031422;28;20482;-53
2022/10/23 11:30:21;;;;;;;2.27;1.20;;;26.40;46.30;;;;;;5031802;28;20987;-51
2022/10/23 11:33:05;;;;;;;1.60;1.10;;;26.40;46.00;;;;;;5030995;28;20439;-50
2022/10/23 11:35:49;;;;;;;3.20;1.50;;;26.50;46.00;;;;;;5031864;28;20456;-50
2022/10/23 11:38:25;;;;;;;1.33;1.20;;;26.30;46.50;;;;;;5032899;28;20490;-53
2022/10/23 11:40:53;;;;;;;1.50;1.40;;;26.20;46.80;;;;;;5040638;28;20548;-52
2022/10/23 11:43:32;;;;;;;1.30;1.17;;;26.00;46.60;;;;;;5031278;28;20424;-50
2022/10/23 11:46:17;;;;;;;1.10;1.03;;;26.10;46.80;;;;;;5031955;28;20447;-53
2022/10/23 11:48:43;;;;;;;1.27;1.17;;;26.10;47.20;;;;;;5039868;28;20430;-50
2022/10/23 11:51:36;;;;;;;1.17;1.10;;;26.00;47.60;;;;;;5051058;28;20427;-52
2022/10/23 11:54:12;;;;;;;2.27;1.80;;;26.00;46.90;;;;;;5051704;28;20254;-53
2022/10/23 11:56:57;;;;;;;2.97;1.13;;;25.90;47.30;;;;;;5050826;28;20423;-54
2022/10/23 11:59:32;;;;;;;1.40;1.17;;;25.80;47.70;;;;;;5051692;28;20478;-52
2022/10/23 12:02:02;;;;;;;1.67;1.37;;;25.90;47.60;;;;;;5050465;28;20422;-53
2022/10/23 12:04:34;;;;;;;2.47;1.37;;;26.00;47.20;;;;;;5049765;28;20463;-53
2022/10/23 12:07:01;;;;;;;3.37;1.50;;;26.00;47.50;;;;;;5050981;28;20434;-53
2022/10/23 12:09:40;;;;;;;1.90;1.30;;;26.10;47.40;;;;;;5051306;28;20446;-52
2022/10/23 12:12:06;;;;;;;1.20;1.10;;;26.10;47.70;;;;;;5050215;28;20493;-52
2022/10/23 12:14:47;;;;;;;1.70;1.37;;;26.10;47.30;;;;;;5051308;28;20427;-53
2022/10/23 12:17:21;;;;;;;1.50;1.30;;;26.20;47.70;;;;;;5034558;28;20583;-50
2022/10/23 12:19:53;;;;;;;2.07;1.40;;;26.30;48.00;;;;;;5031483;28;20489;-53
2022/10/23 12:22:23;;;;;;;3.60;1.97;;;26.40;47.50;;;;;;5030354;28;20789;-51
2022/10/23 12:25:04;;;;;;;1.30;1.20;;;26.50;47.50;;;;;;5031255;28;20427;-54
2022/10/23 12:27:36;;;;;;;1.47;1.30;;;26.40;47.90;;;;;;5041162;28;20801;-52
2022/10/23 12:30:16;;;;;;;1.40;1.30;;;26.40;47.60;;;;;;5053855;28;20434;-55
2022/10/23 12:33:03;;;;;;;2.20;1.37;;;26.50;48.00;;;;;;5054685;28;20503;-51
2022/10/23 12:35:57;;;;;;;3.40;1.50;;;26.50;48.10;;;;;;5055015;28;20428;-54
2022/10/23 12:38:24;;;;;;;1.77;1.67;;;26.30;48.50;;;;;;5054227;28;20537;-52
2022/10/23 12:40:59;;;;;;;2.83;2.20;;;26.10;48.80;;;;;;5043974;28;20462;-52
2022/10/23 12:43:28;;;;;;;4.43;1.63;;;26.10;48.70;;;;;;5034407;28;20474;-51
2022/10/23 12:45:55;;;;;;;1.43;1.27;;;26.00;49.00;;;;;;5035166;28;20751;-53
2022/10/23 12:48:23;;;;;;;1.40;1.30;;;25.90;49.50;;;;;;5034628;28;20464;-52
2022/10/23 12:50:51;;;;;;;4.30;1.93;;;25.90;49.40;;;;;;5034474;28;20428;-53
2022/10/23 12:53:19;;;;;;;2.20;1.33;;;26.10;49.20;;;;;;5034237;28;20515;-53
2022/10/23 12:56:00;;;;;;;1.47;1.37;;;26.30;49.10;;;;;;5034706;28;20438;-55
2022/10/23 12:58:30;;;;;;;2.90;1.60;;;26.40;48.50;;;;;;5032285;28;20491;-52
2022/10/23 13:01:02;;;;;;;1.83;1.47;;;26.50;48.20;;;;;;5034238;28;20440;-53
2022/10/23 13:03:29;;;;;;;2.50;1.60;;;26.60;48.20;;;;;;5034242;28;20463;-49
2022/10/23 13:05:58;;;;;;;2.00;1.80;;;26.90;48.10;;;;;;5034544;28;20431;-51
2022/10/23 13:08:32;;;;;;;3.50;2.27;;;26.90;48.90;;;;;;5033869;28;20481;-50